sensor_id;sensor_type;location;lat;lon;timestamp;temperature;humidity
14122;DHT22;7139;48.114;11.442;2023-08-06T00:00:29;15.70;99.90
14122;DHT22;7139;48.114;11.442;2023-08-06T00:02:56;15.70;99.90
14122;DHT22;7139;48.114;11.442;2023-08-06T00:05:22;15.60;99.90
14122;DHT22;7139;48.114;11.442;2023-08-06T00:07:49;15.60;99.90
14122;DHT22;7139;48.114;11.442;2023-08-06T00:10:17;15.60;99.90
14122;DHT22;7139;48.114;11.442;2023-08-06T00:12:44;15.40;99.90
14122;DHT22;7139;48.114;11.442;2023-08-06T00:15:11;15.30;99.90
14122;DHT22;7139;48.114;11.442;2023-08-06T00:17:39;15.30;99.90
14122;DHT22;7139;48.114;11.442;2023-08-06T00:20:07;15.30;99.90
14122;DHT22;7139;48.114;11.442;2023-08-06T00:22:35;15.20;99.90
14122;DHT22;7139;48.114;11.442;2023-08-06T00:25:02;15.20;99.90
14122;DHT22;7139;48.114;11.442;2023-08-06T00:27:29;15.20;99.90
14122;DHT22;7139;48.114;11.442;2023-08-06T00:29:55;15.20;99.90
14122;DHT22;7139;48.114;11.442;2023-08-06T00:32:22;15.10;99.90
14122;DHT22;7139;48.114;11.442;2023-08-06T00:34:50;15.00;99.90
14122;DHT22;7139;48.114;11.442;2023-08-06T00:37:17;15.00;99.90
14122;DHT22;7139;48.114;11.442;2023-08-06T00:39:44;15.00;99.90
14122;DHT22;7139;48.114;11.442;2023-08-06T00:42:11;15.00;99.90
14122;DHT22;7139;48.114;11.442;2023-08-06T00:44:38;15.00;99.90
14122;DHT22;7139;48.114;11.442;2023-08-06T00:47:06;15.00;99.90
14122;DHT22;7139;48.114;11.442;2023-08-06T00:49:34;15.00;99.90
14122;DHT22;7139;48.114;11.442;2023-08-06T00:52:04;15.10;99.90
14122;DHT22;7139;48.114;11.442;2023-08-06T00:54:31;15.10;99.90
14122;DHT22;7139;48.114;11.442;2023-08-06T00:56:59;15.10;99.90
14122;DHT22;7139;48.114;11.442;2023-08-06T00:59:27;15.10;99.90
14122;DHT22;7139;48.114;11.442;2023-08-06T01:01:54;15.10;99.90
14122;DHT22;7139;48.114;11.442;2023-08-06T01:04:22;15.10;99.90
14122;DHT22;7139;48.114;11.442;2023-08-06T01:07:03;15.00;99.90
14122;DHT22;7139;48.114;11.442;2023-08-06T01:09:39;15.00;99.90
14122;DHT22;7139;48.114;11.442;2023-08-06T01:12:18;15.00;99.90
14122;DHT22;7139;48.114;11.442;2023-08-06T01:14:50;14.90;99.90
14122;DHT22;7139;48.114;11.442;2023-08-06T01:17:20;14.90;99.90
14122;DHT22;7139;48.114;11.442;2023-08-06T01:19:47;14.90;99.90
14122;DHT22;7139;48.114;11.442;2023-08-06T01:22:15;14.80;99.90
14122;DHT22;7139;48.114;11.442;2023-08-06T01:24:48;14.80;99.90
14122;DHT22;7139;48.114;11.442;2023-08-06T01:27:22;14.80;99.90
14122;DHT22;7139;48.114;11.442;2023-08-06T01:29:57;14.80;99.90
14122;DHT22;7139;48.114;11.442;2023-08-06T01:32:30;14.80;99.90
14122;DHT22;7139;48.114;11.442;2023-08-06T01:35:00;14.80;99.90
14122;DHT22;7139;48.114;11.442;2023-08-06T01:37:29;14.80;99.90
14122;DHT22;7139;48.114;11.442;2023-08-06T01:39:56;14.90;99.90
14122;DHT22;7139;48.114;11.442;2023-08-06T01:42:23;14.90;99.90
14122;DHT22;7139;48.114;11.442;2023-08-06T01:44:49;14.80;99.90
14122;DHT22;7139;48.114;11.442;2023-08-06T01:47:16;14.80;99.90
14122;DHT22;7139;48.114;11.442;2023-08-06T01:49:43;14.90;99.90
14122;DHT22;7139;48.114;11.442;2023-08-06T01:52:10;14.80;99.90
14122;DHT22;7139;48.114;11.442;2023-08-06T01:54:38;14.80;99.90
14122;DHT22;7139;48.114;11.442;2023-08-06T01:57:05;14.70;99.90
14122;DHT22;7139;48.114;11.442;2023-08-06T01:59:32;14.60;99.90
14122;DHT22;7139;48.114;11.442;2023-08-06T02:01:59;14.60;99.90
14122;DHT22;7139;48.114;11.442;2023-08-06T02:04:25;14.60;99.90
14122;DHT22;7139;48.114;11.442;2023-08-06T02:06:52;14.60;99.90
14122;DHT22;7139;48.114;11.442;2023-08-06T02:09:19;14.60;99.90
14122;DHT22;7139;48.114;11.442;2023-08-06T02:11:47;14.50;99.90
14122;DHT22;7139;48.114;11.442;2023-08-06T02:14:14;14.50;99.90
14122;DHT22;7139;48.114;11.442;2023-08-06T02:16:40;14.50;99.90
14122;DHT22;7139;48.114;11.442;2023-08-06T02:19:07;14.50;99.90
14122;DHT22;7139;48.114;11.442;2023-08-06T02:21:34;14.40;99.90
14122;DHT22;7139;48.114;11.442;2023-08-06T02:24:01;14.40;99.90
14122;DHT22;7139;48.114;11.442;2023-08-06T02:26:27;14.40;99.90
14122;DHT22;7139;48.114;11.442;2023-08-06T02:28:56;14.40;99.90
14122;DHT22;7139;48.114;11.442;2023-08-06T02:31:22;14.40;99.90
14122;DHT22;7139;48.114;11.442;2023-08-06T02:33:49;14.30;99.90
14122;DHT22;7139;48.114;11.442;2023-08-06T02:36:16;14.40;99.90
14122;DHT22;7139;48.114;11.442;2023-08-06T02:38:43;14.40;99.90
14122;DHT22;7139;48.114;11.442;2023-08-06T02:41:09;14.40;99.90
14122;DHT22;7139;48.114;11.442;2023-08-06T02:43:36;14.30;99.90
14122;DHT22;7139;48.114;11.442;2023-08-06T02:46:04;14.40;99.90
14122;DHT22;7139;48.114;11.442;2023-08-06T02:48:31;14.40;99.90
14122;DHT22;7139;48.114;11.442;2023-08-06T02:50:58;14.30;99.90
14122;DHT22;7139;48.114;11.442;2023-08-06T02:53:25;14.30;99.90
14122;DHT22;7139;48.114;11.442;2023-08-06T02:55:52;14.30;99.90
14122;DHT22;7139;48.114;11.442;2023-08-06T02:58:20;14.30;99.90
14122;DHT22;7139;48.114;11.442;2023-08-06T03:00:59;14.30;99.90
14122;DHT22;7139;48.114;11.442;2023-08-06T03:03:27;14.30;99.90
14122;DHT22;7139;48.114;11.442;2023-08-06T03:05:53;14.30;99.90
14122;DHT22;7139;48.114;11.442;2023-08-06T03:08:20;14.30;99.90
14122;DHT22;7139;48.114;11.442;2023-08-06T03:10:48;14.30;99.90
14122;DHT22;7139;48.114;11.442;2023-08-06T03:13:15;14.30;99.90
14122;DHT22;7139;48.114;11.442;2023-08-06T03:15:41;14.30;99.90
14122;DHT22;7139;48.114;11.442;2023-08-06T03:18:08;14.20;99.90
14122;DHT22;7139;48.114;11.442;2023-08-06T03:20:37;14.20;99.90
14122;DHT22;7139;48.114;11.442;2023-08-06T03:23:03;14.20;99.90
14122;DHT22;7139;48.114;11.442;2023-08-06T03:25:30;14.20;99.90
14122;DHT22;7139;48.114;11.442;2023-08-06T03:27:57;14.20;99.90
14122;DHT22;7139;48.114;11.442;2023-08-06T03:30:24;14.20;99.90
14122;DHT22;7139;48.114;11.442;2023-08-06T03:32:50;14.10;99.90
14122;DHT22;7139;48.114;11.442;2023-08-06T03:35:17;14.10;99.90
14122;DHT22;7139;48.114;11.442;2023-08-06T03:37:45;14.10;99.90
14122;DHT22;7139;48.114;11.442;2023-08-06T03:40:12;14.00;99.90
14122;DHT22;7139;48.114;11.442;2023-08-06T03:42:39;14.00;99.90
14122;DHT22;7139;48.114;11.442;2023-08-06T03:45:07;14.00;99.90
14122;DHT22;7139;48.114;11.442;2023-08-06T03:47:34;14.00;99.90
14122;DHT22;7139;48.114;11.442;2023-08-06T03:50:00;14.00;99.90
14122;DHT22;7139;48.114;11.442;2023-08-06T03:52:27;14.00;99.90
14122;DHT22;7139;48.114;11.442;2023-08-06T03:54:55;14.00;99.90
14122;DHT22;7139;48.114;11.442;2023-08-06T03:57:22;14.00;99.90
14122;DHT22;7139;48.114;11.442;2023-08-06T03:59:49;14.00;99.90
14122;DHT22;7139;48.114;11.442;2023-08-06T04:02:15;13.90;99.90
14122;DHT22;7139;48.114;11.442;2023-08-06T04:04:42;14.00;99.90
14122;DHT22;7139;48.114;11.442;2023-08-06T04:07:09;13.90;99.90
14122;DHT22;7139;48.114;11.442;2023-08-06T04:09:52;13.90;99.90
14122;DHT22;7139;48.114;11.442;2023-08-06T04:12:20;13.90;99.90
14122;DHT22;7139;48.114;11.442;2023-08-06T04:14:47;14.00;99.90
14122;DHT22;7139;48.114;11.442;2023-08-06T04:17:13;13.90;99.90
14122;DHT22;7139;48.114;11.442;2023-08-06T04:19:40;14.00;99.90
14122;DHT22;7139;48.114;11.442;2023-08-06T04:22:07;13.90;99.90
14122;DHT22;7139;48.114;11.442;2023-08-06T04:24:34;14.00;99.90
14122;DHT22;7139;48.114;11.442;2023-08-06T04:27:00;14.00;99.90
14122;DHT22;7139;48.114;11.442;2023-08-06T04:29:29;14.00;99.90
14122;DHT22;7139;48.114;11.442;2023-08-06T04:31:55;14.00;99.90
14122;DHT22;7139;48.114;11.442;2023-08-06T04:34:22;14.00;99.90
14122;DHT22;7139;48.114;11.442;2023-08-06T04:36:49;14.00;99.90
14122;DHT22;7139;48.114;11.442;2023-08-06T04:39:16;14.10;99.90
14122;DHT22;7139;48.114;11.442;2023-08-06T04:41:43;14.00;99.90
14122;DHT22;7139;48.114;11.442;2023-08-06T04:44:09;14.00;99.90
14122;DHT22;7139;48.114;11.442;2023-08-06T04:46:38;14.00;99.90
14122;DHT22;7139;48.114;11.442;2023-08-06T04:49:04;14.00;99.90
14122;DHT22;7139;48.114;11.442;2023-08-06T04:51:31;14.10;99.90
14122;DHT22;7139;48.114;11.442;2023-08-06T04:53:58;14.10;99.90
14122;DHT22;7139;48.114;11.442;2023-08-06T04:56:25;14.10;99.90
14122;DHT22;7139;48.114;11.442;2023-08-06T04:58:51;14.10;99.90
14122;DHT22;7139;48.114;11.442;2023-08-06T05:01:18;14.10;99.90
14122;DHT22;7139;48.114;11.442;2023-08-06T05:03:47;14.20;99.90
14122;DHT22;7139;48.114;11.442;2023-08-06T05:06:13;14.20;99.90
14122;DHT22;7139;48.114;11.442;2023-08-06T05:08:40;14.20;99.90
14122;DHT22;7139;48.114;11.442;2023-08-06T05:11:07;14.20;99.90
14122;DHT22;7139;48.114;11.442;2023-08-06T05:13:34;14.20;99.90
14122;DHT22;7139;48.114;11.442;2023-08-06T05:16:00;14.30;99.90
14122;DHT22;7139;48.114;11.442;2023-08-06T05:18:27;14.30;99.90
14122;DHT22;7139;48.114;11.442;2023-08-06T05:20:57;14.30;99.90
14122;DHT22;7139;48.114;11.442;2023-08-06T05:23:24;14.30;99.90
14122;DHT22;7139;48.114;11.442;2023-08-06T05:25:50;14.30;99.90
14122;DHT22;7139;48.114;11.442;2023-08-06T05:28:17;14.30;99.90
14122;DHT22;7139;48.114;11.442;2023-08-06T05:30:44;14.30;99.90
14122;DHT22;7139;48.114;11.442;2023-08-06T05:33:11;14.40;99.90
14122;DHT22;7139;48.114;11.442;2023-08-06T05:35:37;14.40;99.90
14122;DHT22;7139;48.114;11.442;2023-08-06T05:38:05;14.40;99.90
14122;DHT22;7139;48.114;11.442;2023-08-06T05:40:33;14.40;99.90
14122;DHT22;7139;48.114;11.442;2023-08-06T05:43:00;14.40;99.90
14122;DHT22;7139;48.114;11.442;2023-08-06T05:45:27;14.50;99.90
14122;DHT22;7139;48.114;11.442;2023-08-06T05:47:53;14.50;99.90
14122;DHT22;7139;48.114;11.442;2023-08-06T05:50:23;14.50;99.90
14122;DHT22;7139;48.114;11.442;2023-08-06T05:52:51;14.50;99.90
14122;DHT22;7139;48.114;11.442;2023-08-06T05:55:19;14.50;99.90
14122;DHT22;7139;48.114;11.442;2023-08-06T05:57:46;14.60;99.90
14122;DHT22;7139;48.114;11.442;2023-08-06T06:00:13;14.60;99.90
14122;DHT22;7139;48.114;11.442;2023-08-06T06:02:40;14.70;99.90
14122;DHT22;7139;48.114;11.442;2023-08-06T06:05:08;14.70;99.90
14122;DHT22;7139;48.114;11.442;2023-08-06T06:07:34;14.70;99.90
14122;DHT22;7139;48.114;11.442;2023-08-06T06:10:01;14.80;99.90
14122;DHT22;7139;48.114;11.442;2023-08-06T06:12:29;14.80;99.90
14122;DHT22;7139;48.114;11.442;2023-08-06T06:14:56;14.80;99.90
14122;DHT22;7139;48.114;11.442;2023-08-06T06:17:23;14.80;99.90
14122;DHT22;7139;48.114;11.442;2023-08-06T06:19:50;14.80;99.90
14122;DHT22;7139;48.114;11.442;2023-08-06T06:22:17;14.80;99.90
14122;DHT22;7139;48.114;11.442;2023-08-06T06:24:44;14.80;99.90
14122;DHT22;7139;48.114;11.442;2023-08-06T06:27:11;14.80;99.90
14122;DHT22;7139;48.114;11.442;2023-08-06T06:29:39;14.90;99.90
14122;DHT22;7139;48.114;11.442;2023-08-06T06:32:06;15.00;99.90
14122;DHT22;7139;48.114;11.442;2023-08-06T06:34:33;15.00;99.90
14122;DHT22;7139;48.114;11.442;2023-08-06T06:37:00;15.00;99.90
14122;DHT22;7139;48.114;11.442;2023-08-06T06:39:26;15.00;99.90
14122;DHT22;7139;48.114;11.442;2023-08-06T06:41:53;15.00;99.90
14122;DHT22;7139;48.114;11.442;2023-08-06T06:44:20;15.00;99.90
14122;DHT22;7139;48.114;11.442;2023-08-06T06:46:48;15.10;99.90
14122;DHT22;7139;48.114;11.442;2023-08-06T06:49:15;15.10;99.90
14122;DHT22;7139;48.114;11.442;2023-08-06T06:51:41;15.20;99.90
14122;DHT22;7139;48.114;11.442;2023-08-06T06:54:08;15.30;99.90
14122;DHT22;7139;48.114;11.442;2023-08-06T06:56:35;15.40;99.90
14122;DHT22;7139;48.114;11.442;2023-08-06T06:59:02;15.50;99.90
14122;DHT22;7139;48.114;11.442;2023-08-06T07:01:28;15.50;99.90
14122;DHT22;7139;48.114;11.442;2023-08-06T07:03:57;15.60;99.90
14122;DHT22;7139;48.114;11.442;2023-08-06T07:06:23;15.60;99.90
14122;DHT22;7139;48.114;11.442;2023-08-06T07:08:50;15.70;99.90
14122;DHT22;7139;48.114;11.442;2023-08-06T07:11:17;15.80;99.90
14122;DHT22;7139;48.114;11.442;2023-08-06T07:13:44;15.80;99.90
14122;DHT22;7139;48.114;11.442;2023-08-06T07:16:11;15.80;99.90
14122;DHT22;7139;48.114;11.442;2023-08-06T07:18:37;15.70;99.90
14122;DHT22;7139;48.114;11.442;2023-08-06T07:21:06;15.60;99.90
14122;DHT22;7139;48.114;11.442;2023-08-06T07:23:32;15.50;99.90
14122;DHT22;7139;48.114;11.442;2023-08-06T07:25:59;15.40;99.90
14122;DHT22;7139;48.114;11.442;2023-08-06T07:28:26;15.40;99.90
14122;DHT22;7139;48.114;11.442;2023-08-06T07:30:53;15.40;99.90
14122;DHT22;7139;48.114;11.442;2023-08-06T07:33:19;15.30;99.90
14122;DHT22;7139;48.114;11.442;2023-08-06T07:35:46;15.40;99.90
14122;DHT22;7139;48.114;11.442;2023-08-06T07:38:14;15.40;99.90
14122;DHT22;7139;48.114;11.442;2023-08-06T07:40:41;15.30;99.90
14122;DHT22;7139;48.114;11.442;2023-08-06T07:43:08;15.50;99.90
14122;DHT22;7139;48.114;11.442;2023-08-06T07:45:35;15.60;99.90
14122;DHT22;7139;48.114;11.442;2023-08-06T07:48:03;15.70;99.90
14122;DHT22;7139;48.114;11.442;2023-08-06T07:50:30;15.80;99.90
14122;DHT22;7139;48.114;11.442;2023-08-06T07:52:57;15.90;99.90
14122;DHT22;7139;48.114;11.442;2023-08-06T07:55:25;16.10;99.90
14122;DHT22;7139;48.114;11.442;2023-08-06T07:57:53;16.20;99.90
14122;DHT22;7139;48.114;11.442;2023-08-06T08:00:20;16.40;99.90
14122;DHT22;7139;48.114;11.442;2023-08-06T08:02:46;16.60;99.90
14122;DHT22;7139;48.114;11.442;2023-08-06T08:05:13;16.70;99.90
14122;DHT22;7139;48.114;11.442;2023-08-06T08:07:40;16.90;99.90
14122;DHT22;7139;48.114;11.442;2023-08-06T08:10:07;17.10;99.90
14122;DHT22;7139;48.114;11.442;2023-08-06T08:12:35;17.30;99.90
14122;DHT22;7139;48.114;11.442;2023-08-06T08:15:02;17.40;99.90
14122;DHT22;7139;48.114;11.442;2023-08-06T08:17:29;17.60;99.90
14122;DHT22;7139;48.114;11.442;2023-08-06T08:19:56;17.60;99.90
14122;DHT22;7139;48.114;11.442;2023-08-06T08:22:23;17.60;99.90
14122;DHT22;7139;48.114;11.442;2023-08-06T08:24:50;17.70;99.90
14122;DHT22;7139;48.114;11.442;2023-08-06T08:27:16;17.90;99.90
14122;DHT22;7139;48.114;11.442;2023-08-06T08:29:44;17.80;99.90
14122;DHT22;7139;48.114;11.442;2023-08-06T08:32:11;17.70;99.90
14122;DHT22;7139;48.114;11.442;2023-08-06T08:34:38;17.70;99.90
14122;DHT22;7139;48.114;11.442;2023-08-06T08:37:05;17.70;99.90
14122;DHT22;7139;48.114;11.442;2023-08-06T08:39:32;17.80;99.90
14122;DHT22;7139;48.114;11.442;2023-08-06T08:41:58;17.60;99.90
14122;DHT22;7139;48.114;11.442;2023-08-06T08:44:27;17.50;99.90
14122;DHT22;7139;48.114;11.442;2023-08-06T08:46:56;17.20;99.90
14122;DHT22;7139;48.114;11.442;2023-08-06T08:49:23;17.00;99.90
14122;DHT22;7139;48.114;11.442;2023-08-06T08:51:52;16.90;99.90
14122;DHT22;7139;48.114;11.442;2023-08-06T08:54:20;16.80;99.90
14122;DHT22;7139;48.114;11.442;2023-08-06T08:56:49;16.80;99.90
14122;DHT22;7139;48.114;11.442;2023-08-06T08:59:16;16.70;99.90
14122;DHT22;7139;48.114;11.442;2023-08-06T09:01:43;16.60;99.90
14122;DHT22;7139;48.114;11.442;2023-08-06T09:04:13;16.60;99.90
14122;DHT22;7139;48.114;11.442;2023-08-06T09:06:42;16.40;99.90
14122;DHT22;7139;48.114;11.442;2023-08-06T09:09:12;16.50;99.90
14122;DHT22;7139;48.114;11.442;2023-08-06T09:11:43;16.50;99.90
14122;DHT22;7139;48.114;11.442;2023-08-06T09:14:11;16.60;99.90
14122;DHT22;7139;48.114;11.442;2023-08-06T09:16:38;16.50;99.90
14122;DHT22;7139;48.114;11.442;2023-08-06T09:19:08;16.40;99.90
14122;DHT22;7139;48.114;11.442;2023-08-06T09:21:38;16.20;99.90
14122;DHT22;7139;48.114;11.442;2023-08-06T09:24:08;16.30;99.90
14122;DHT22;7139;48.114;11.442;2023-08-06T09:26:36;16.30;99.90
14122;DHT22;7139;48.114;11.442;2023-08-06T09:29:05;16.30;99.90
14122;DHT22;7139;48.114;11.442;2023-08-06T09:31:33;16.40;99.90
14122;DHT22;7139;48.114;11.442;2023-08-06T09:34:00;16.50;99.90
14122;DHT22;7139;48.114;11.442;2023-08-06T09:36:27;16.60;99.90
14122;DHT22;7139;48.114;11.442;2023-08-06T09:38:56;16.60;99.90
14122;DHT22;7139;48.114;11.442;2023-08-06T09:41:26;16.70;99.90
14122;DHT22;7139;48.114;11.442;2023-08-06T09:43:54;16.80;99.90
14122;DHT22;7139;48.114;11.442;2023-08-06T09:46:20;16.90;99.90
14122;DHT22;7139;48.114;11.442;2023-08-06T09:48:48;16.90;99.90
14122;DHT22;7139;48.114;11.442;2023-08-06T09:51:15;17.00;99.90
14122;DHT22;7139;48.114;11.442;2023-08-06T09:53:43;17.10;99.90
14122;DHT22;7139;48.114;11.442;2023-08-06T09:56:12;17.10;99.90
14122;DHT22;7139;48.114;11.442;2023-08-06T09:58:41;17.00;99.90
14122;DHT22;7139;48.114;11.442;2023-08-06T10:01:08;17.00;99.90
14122;DHT22;7139;48.114;11.442;2023-08-06T10:03:36;17.00;99.90
14122;DHT22;7139;48.114;11.442;2023-08-06T10:06:05;16.90;99.90
14122;DHT22;7139;48.114;11.442;2023-08-06T10:08:34;16.70;99.90
14122;DHT22;7139;48.114;11.442;2023-08-06T10:11:02;16.60;99.90
14122;DHT22;7139;48.114;11.442;2023-08-06T10:13:33;16.60;99.90
14122;DHT22;7139;48.114;11.442;2023-08-06T10:16:01;16.70;99.90
14122;DHT22;7139;48.114;11.442;2023-08-06T10:18:29;16.90;99.90
14122;DHT22;7139;48.114;11.442;2023-08-06T10:20:56;16.80;99.90
14122;DHT22;7139;48.114;11.442;2023-08-06T10:23:33;16.90;99.90
14122;DHT22;7139;48.114;11.442;2023-08-06T10:26:00;17.10;99.90
14122;DHT22;7139;48.114;11.442;2023-08-06T10:28:35;17.10;99.90
14122;DHT22;7139;48.114;11.442;2023-08-06T10:31:02;17.10;99.90
14122;DHT22;7139;48.114;11.442;2023-08-06T10:33:41;16.90;99.90
14122;DHT22;7139;48.114;11.442;2023-08-06T10:36:09;16.80;99.90
14122;DHT22;7139;48.114;11.442;2023-08-06T10:38:44;16.60;99.90
14122;DHT22;7139;48.114;11.442;2023-08-06T10:41:16;16.40;99.90
14122;DHT22;7139;48.114;11.442;2023-08-06T10:43:47;16.40;99.90
14122;DHT22;7139;48.114;11.442;2023-08-06T10:46:22;16.30;99.90
14122;DHT22;7139;48.114;11.442;2023-08-06T10:48:49;16.20;99.90
14122;DHT22;7139;48.114;11.442;2023-08-06T10:51:16;16.30;99.90
14122;DHT22;7139;48.114;11.442;2023-08-06T10:53:45;16.20;99.90
14122;DHT22;7139;48.114;11.442;2023-08-06T10:56:12;16.20;99.90
14122;DHT22;7139;48.114;11.442;2023-08-06T10:58:39;16.30;99.90
14122;DHT22;7139;48.114;11.442;2023-08-06T11:01:08;16.60;99.90
14122;DHT22;7139;48.114;11.442;2023-08-06T11:03:34;16.80;99.90
14122;DHT22;7139;48.114;11.442;2023-08-06T11:06:02;16.90;99.90
14122;DHT22;7139;48.114;11.442;2023-08-06T11:08:34;16.90;99.90
14122;DHT22;7139;48.114;11.442;2023-08-06T11:11:08;16.90;99.90
14122;DHT22;7139;48.114;11.442;2023-08-06T11:13:36;16.80;99.90
14122;DHT22;7139;48.114;11.442;2023-08-06T11:16:03;16.60;99.90
14122;DHT22;7139;48.114;11.442;2023-08-06T11:18:32;16.40;99.90
14122;DHT22;7139;48.114;11.442;2023-08-06T11:20:59;16.30;99.90
14122;DHT22;7139;48.114;11.442;2023-08-06T11:23:27;16.30;99.90
14122;DHT22;7139;48.114;11.442;2023-08-06T11:25:55;16.30;99.90
14122;DHT22;7139;48.114;11.442;2023-08-06T11:28:21;16.30;99.90
14122;DHT22;7139;48.114;11.442;2023-08-06T11:30:48;16.40;99.90
14122;DHT22;7139;48.114;11.442;2023-08-06T11:33:20;16.30;99.90
14122;DHT22;7139;48.114;11.442;2023-08-06T11:35:49;16.10;99.90
14122;DHT22;7139;48.114;11.442;2023-08-06T11:38:15;16.10;99.90
14122;DHT22;7139;48.114;11.442;2023-08-06T11:40:43;16.10;99.90
14122;DHT22;7139;48.114;11.442;2023-08-06T11:43:11;16.20;99.90
14122;DHT22;7139;48.114;11.442;2023-08-06T11:45:38;16.30;99.90
14122;DHT22;7139;48.114;11.442;2023-08-06T11:48:05;16.40;99.90
14122;DHT22;7139;48.114;11.442;2023-08-06T11:50:36;16.40;99.90
14122;DHT22;7139;48.114;11.442;2023-08-06T11:53:04;16.30;99.90
14122;DHT22;7139;48.114;11.442;2023-08-06T11:55:32;16.30;99.90
14122;DHT22;7139;48.114;11.442;2023-08-06T11:58:03;16.30;99.90
14122;DHT22;7139;48.114;11.442;2023-08-06T12:00:30;16.40;99.90
14122;DHT22;7139;48.114;11.442;2023-08-06T12:02:57;16.30;99.90
14122;DHT22;7139;48.114;11.442;2023-08-06T12:05:28;16.30;99.90
14122;DHT22;7139;48.114;11.442;2023-08-06T12:07:57;16.10;99.90
14122;DHT22;7139;48.114;11.442;2023-08-06T12:10:26;16.10;99.90
14122;DHT22;7139;48.114;11.442;2023-08-06T12:12:54;16.20;99.90
14122;DHT22;7139;48.114;11.442;2023-08-06T12:15:21;16.20;99.90
14122;DHT22;7139;48.114;11.442;2023-08-06T12:17:49;16.20;99.90
14122;DHT22;7139;48.114;11.442;2023-08-06T12:20:16;16.20;99.90
14122;DHT22;7139;48.114;11.442;2023-08-06T12:22:43;16.20;99.90
14122;DHT22;7139;48.114;11.442;2023-08-06T12:25:11;16.20;99.90
14122;DHT22;7139;48.114;11.442;2023-08-06T12:27:41;16.30;99.90
14122;DHT22;7139;48.114;11.442;2023-08-06T12:30:09;16.40;99.90
14122;DHT22;7139;48.114;11.442;2023-08-06T12:32:36;16.30;99.90
14122;DHT22;7139;48.114;11.442;2023-08-06T12:35:03;16.20;99.90
14122;DHT22;7139;48.114;11.442;2023-08-06T12:37:30;16.10;99.90
14122;DHT22;7139;48.114;11.442;2023-08-06T12:39:57;16.00;99.90
14122;DHT22;7139;48.114;11.442;2023-08-06T12:42:24;15.90;99.90
14122;DHT22;7139;48.114;11.442;2023-08-06T12:44:52;15.70;99.90
14122;DHT22;7139;48.114;11.442;2023-08-06T12:47:19;15.60;99.90
14122;DHT22;7139;48.114;11.442;2023-08-06T12:49:46;15.60;99.90
14122;DHT22;7139;48.114;11.442;2023-08-06T12:52:13;15.60;99.90
14122;DHT22;7139;48.114;11.442;2023-08-06T12:54:40;15.60;99.90
14122;DHT22;7139;48.114;11.442;2023-08-06T12:57:07;15.60;99.90
14122;DHT22;7139;48.114;11.442;2023-08-06T12:59:34;15.60;99.90
14122;DHT22;7139;48.114;11.442;2023-08-06T13:02:03;15.50;99.90
14122;DHT22;7139;48.114;11.442;2023-08-06T13:04:30;15.50;99.90
14122;DHT22;7139;48.114;11.442;2023-08-06T13:07:00;15.50;99.90
14122;DHT22;7139;48.114;11.442;2023-08-06T13:09:27;15.60;99.90
14122;DHT22;7139;48.114;11.442;2023-08-06T13:11:54;15.70;99.90
14122;DHT22;7139;48.114;11.442;2023-08-06T13:14:20;15.60;99.90
14122;DHT22;7139;48.114;11.442;2023-08-06T13:16:47;15.50;99.90
14122;DHT22;7139;48.114;11.442;2023-08-06T13:19:15;15.50;99.90
14122;DHT22;7139;48.114;11.442;2023-08-06T13:22:09;15.50;99.90
14122;DHT22;7139;48.114;11.442;2023-08-06T13:24:35;15.40;99.90
14122;DHT22;7139;48.114;11.442;2023-08-06T13:27:02;15.30;99.90
14122;DHT22;7139;48.114;11.442;2023-08-06T13:29:29;15.10;99.90
14122;DHT22;7139;48.114;11.442;2023-08-06T13:31:56;15.00;99.90
14122;DHT22;7139;48.114;11.442;2023-08-06T13:34:24;15.00;99.90
14122;DHT22;7139;48.114;11.442;2023-08-06T13:36:51;14.90;99.90
14122;DHT22;7139;48.114;11.442;2023-08-06T13:39:17;15.00;99.90
14122;DHT22;7139;48.114;11.442;2023-08-06T13:41:45;15.10;99.90
14122;DHT22;7139;48.114;11.442;2023-08-06T13:44:12;15.10;99.90
14122;DHT22;7139;48.114;11.442;2023-08-06T13:46:41;15.10;99.90
14122;DHT22;7139;48.114;11.442;2023-08-06T13:49:07;15.20;99.90
14122;DHT22;7139;48.114;11.442;2023-08-06T13:51:35;15.10;99.90
14122;DHT22;7139;48.114;11.442;2023-08-06T13:54:03;15.10;99.90
14122;DHT22;7139;48.114;11.442;2023-08-06T13:56:30;15.00;99.90
14122;DHT22;7139;48.114;11.442;2023-08-06T13:58:57;14.90;99.90
14122;DHT22;7139;48.114;11.442;2023-08-06T14:01:23;14.80;99.90
14122;DHT22;7139;48.114;11.442;2023-08-06T14:03:51;14.80;99.90
14122;DHT22;7139;48.114;11.442;2023-08-06T14:06:19;14.80;99.90
14122;DHT22;7139;48.114;11.442;2023-08-06T14:08:47;14.80;99.90
14122;DHT22;7139;48.114;11.442;2023-08-06T14:11:13;14.80;99.90
14122;DHT22;7139;48.114;11.442;2023-08-06T14:13:40;14.70;99.90
14122;DHT22;7139;48.114;11.442;2023-08-06T14:16:07;14.70;99.90
14122;DHT22;7139;48.114;11.442;2023-08-06T14:18:34;14.60;99.90
14122;DHT22;7139;48.114;11.442;2023-08-06T14:21:03;14.50;99.90
14122;DHT22;7139;48.114;11.442;2023-08-06T14:23:30;14.40;99.90
14122;DHT22;7139;48.114;11.442;2023-08-06T14:25:58;14.40;99.90
14122;DHT22;7139;48.114;11.442;2023-08-06T14:28:24;14.30;99.90
14122;DHT22;7139;48.114;11.442;2023-08-06T14:30:50;14.30;99.90
14122;DHT22;7139;48.114;11.442;2023-08-06T14:33:17;14.20;99.90
14122;DHT22;7139;48.114;11.442;2023-08-06T14:35:44;14.20;99.90
14122;DHT22;7139;48.114;11.442;2023-08-06T14:38:11;14.10;99.90
14122;DHT22;7139;48.114;11.442;2023-08-06T14:40:37;14.10;99.90
14122;DHT22;7139;48.114;11.442;2023-08-06T14:43:06;14.00;99.90
14122;DHT22;7139;48.114;11.442;2023-08-06T14:45:33;14.00;99.90
14122;DHT22;7139;48.114;11.442;2023-08-06T14:48:00;14.00;99.90
14122;DHT22;7139;48.114;11.442;2023-08-06T14:50:26;14.00;99.90
14122;DHT22;7139;48.114;11.442;2023-08-06T14:52:53;14.00;99.90
14122;DHT22;7139;48.114;11.442;2023-08-06T14:55:25;14.00;99.90
14122;DHT22;7139;48.114;11.442;2023-08-06T14:57:52;13.90;99.90
14122;DHT22;7139;48.114;11.442;2023-08-06T15:00:20;13.90;99.90
14122;DHT22;7139;48.114;11.442;2023-08-06T15:02:47;13.90;99.90
14122;DHT22;7139;48.114;11.442;2023-08-06T15:05:14;13.90;99.90
14122;DHT22;7139;48.114;11.442;2023-08-06T15:07:41;13.90;99.90
14122;DHT22;7139;48.114;11.442;2023-08-06T15:10:08;13.90;99.90
14122;DHT22;7139;48.114;11.442;2023-08-06T15:12:35;14.00;99.90
14122;DHT22;7139;48.114;11.442;2023-08-06T15:15:02;14.00;99.90
14122;DHT22;7139;48.114;11.442;2023-08-06T15:17:30;14.10;99.90
14122;DHT22;7139;48.114;11.442;2023-08-06T15:19:57;14.10;99.90
14122;DHT22;7139;48.114;11.442;2023-08-06T15:22:25;14.10;99.90
14122;DHT22;7139;48.114;11.442;2023-08-06T15:24:52;14.10;99.90
14122;DHT22;7139;48.114;11.442;2023-08-06T15:27:18;14.00;99.90
14122;DHT22;7139;48.114;11.442;2023-08-06T15:29:45;14.00;99.90
14122;DHT22;7139;48.114;11.442;2023-08-06T15:32:12;13.90;99.90